sensor_id;sensor_type;location;lat;lon;timestamp;P1;durP1;ratioP1;P2;durP2;ratioP2
5539;SDS011;2792;52.452;9.752;2023-08-12T00:01:09;7.40;;;5.20;;
5539;SDS011;2792;52.452;9.752;2023-08-12T00:03:35;9.50;;;5.23;;
5539;SDS011;2792;52.452;9.752;2023-08-12T00:06:02;7.77;;;5.47;;
5539;SDS011;2792;52.452;9.752;2023-08-12T00:08:30;7.77;;;5.00;;
5539;SDS011;2792;52.452;9.752;2023-08-12T00:10:56;6.77;;;4.90;;
5539;SDS011;2792;52.452;9.752;2023-08-12T00:13:23;6.07;;;4.47;;
5539;SDS011;2792;52.452;9.752;2023-08-12T00:15:51;6.43;;;4.50;;
5539;SDS011;2792;52.452;9.752;2023-08-12T00:18:18;11.50;;;6.00;;
5539;SDS011;2792;52.452;9.752;2023-08-12T00:20:44;6.60;;;4.87;;
5539;SDS011;2792;52.452;9.752;2023-08-12T00:23:11;9.43;;;5.10;;
5539;SDS011;2792;52.452;9.752;2023-08-12T00:25:37;7.57;;;5.20;;
5539;SDS011;2792;52.452;9.752;2023-08-12T00:28:04;7.87;;;4.90;;
5539;SDS011;2792;52.452;9.752;2023-08-12T00:30:31;7.03;;;4.80;;
5539;SDS011;2792;52.452;9.752;2023-08-12T00:32:59;7.40;;;5.30;;
5539;SDS011;2792;52.452;9.752;2023-08-12T00:35:25;5.80;;;4.77;;
5539;SDS011;2792;52.452;9.752;2023-08-12T00:37:52;7.13;;;4.73;;
5539;SDS011;2792;52.452;9.752;2023-08-12T00:40:18;11.77;;;5.10;;
5539;SDS011;2792;52.452;9.752;2023-08-12T00:42:45;4.90;;;4.40;;
5539;SDS011;2792;52.452;9.752;2023-08-12T00:45:12;10.63;;;6.27;;
5539;SDS011;2792;52.452;9.752;2023-08-12T00:47:38;8.50;;;4.83;;
5539;SDS011;2792;52.452;9.752;2023-08-12T00:50:07;8.33;;;5.10;;
5539;SDS011;2792;52.452;9.752;2023-08-12T00:52:35;7.63;;;4.83;;
5539;SDS011;2792;52.452;9.752;2023-08-12T00:55:02;4.67;;;4.17;;
5539;SDS011;2792;52.452;9.752;2023-08-12T00:57:29;10.70;;;4.43;;
5539;SDS011;2792;52.452;9.752;2023-08-12T00:59:55;5.30;;;4.57;;
5539;SDS011;2792;52.452;9.752;2023-08-12T01:02:22;7.13;;;4.77;;
5539;SDS011;2792;52.452;9.752;2023-08-12T01:04:49;9.37;;;4.60;;
5539;SDS011;2792;52.452;9.752;2023-08-12T01:07:16;7.50;;;4.90;;
5539;SDS011;2792;52.452;9.752;2023-08-12T01:09:43;9.20;;;5.23;;
5539;SDS011;2792;52.452;9.752;2023-08-12T01:12:11;10.70;;;4.57;;
5539;SDS011;2792;52.452;9.752;2023-08-12T01:14:41;5.23;;;4.27;;
5539;SDS011;2792;52.452;9.752;2023-08-12T01:17:11;8.17;;;4.53;;
5539;SDS011;2792;52.452;9.752;2023-08-12T01:19:40;4.57;;;4.13;;
5539;SDS011;2792;52.452;9.752;2023-08-12T01:22:08;5.80;;;4.57;;
5539;SDS011;2792;52.452;9.752;2023-08-12T01:24:37;10.53;;;4.70;;
5539;SDS011;2792;52.452;9.752;2023-08-12T01:27:05;6.23;;;4.10;;
5539;SDS011;2792;52.452;9.752;2023-08-12T01:29:32;7.90;;;4.70;;
5539;SDS011;2792;52.452;9.752;2023-08-12T01:32:01;5.30;;;3.73;;
5539;SDS011;2792;52.452;9.752;2023-08-12T01:34:39;7.07;;;4.33;;
5539;SDS011;2792;52.452;9.752;2023-08-12T01:37:08;9.43;;;4.20;;
5539;SDS011;2792;52.452;9.752;2023-08-12T01:39:40;5.60;;;4.53;;
5539;SDS011;2792;52.452;9.752;2023-08-12T01:42:08;4.40;;;3.47;;
5539;SDS011;2792;52.452;9.752;2023-08-12T01:44:35;5.60;;;4.27;;
5539;SDS011;2792;52.452;9.752;2023-08-12T01:47:01;7.30;;;4.30;;
5539;SDS011;2792;52.452;9.752;2023-08-12T01:49:28;20.53;;;4.97;;
5539;SDS011;2792;52.452;9.752;2023-08-12T01:51:54;5.97;;;4.20;;
5539;SDS011;2792;52.452;9.752;2023-08-12T01:54:21;8.30;;;4.07;;
5539;SDS011;2792;52.452;9.752;2023-08-12T01:56:49;5.57;;;4.37;;
5539;SDS011;2792;52.452;9.752;2023-08-12T01:59:15;7.13;;;4.70;;
5539;SDS011;2792;52.452;9.752;2023-08-12T02:01:42;7.77;;;4.27;;
5539;SDS011;2792;52.452;9.752;2023-08-12T02:04:08;7.47;;;4.77;;
5539;SDS011;2792;52.452;9.752;2023-08-12T02:06:35;5.30;;;4.20;;
5539;SDS011;2792;52.452;9.752;2023-08-12T02:09:01;4.83;;;3.63;;
5539;SDS011;2792;52.452;9.752;2023-08-12T02:11:28;5.33;;;4.50;;
5539;SDS011;2792;52.452;9.752;2023-08-12T02:13:55;4.40;;;4.00;;
5539;SDS011;2792;52.452;9.752;2023-08-12T02:16:22;5.60;;;4.17;;
5539;SDS011;2792;52.452;9.752;2023-08-12T02:18:48;7.30;;;4.30;;
5539;SDS011;2792;52.452;9.752;2023-08-12T02:21:15;5.47;;;4.33;;
5539;SDS011;2792;52.452;9.752;2023-08-12T02:23:41;5.60;;;4.30;;
5539;SDS011;2792;52.452;9.752;2023-08-12T02:26:09;6.40;;;4.10;;
5539;SDS011;2792;52.452;9.752;2023-08-12T02:28:35;8.53;;;4.80;;
5539;SDS011;2792;52.452;9.752;2023-08-12T02:31:03;7.77;;;4.60;;
5539;SDS011;2792;52.452;9.752;2023-08-12T02:33:30;5.40;;;4.47;;
5539;SDS011;2792;52.452;9.752;2023-08-12T02:35:56;5.77;;;4.40;;
5539;SDS011;2792;52.452;9.752;2023-08-12T02:38:23;7.67;;;4.77;;
5539;SDS011;2792;52.452;9.752;2023-08-12T02:40:49;5.10;;;4.40;;
5539;SDS011;2792;52.452;9.752;2023-08-12T02:43:16;12.00;;;4.37;;
5539;SDS011;2792;52.452;9.752;2023-08-12T02:45:43;10.63;;;4.60;;
5539;SDS011;2792;52.452;9.752;2023-08-12T02:48:11;7.40;;;4.57;;
5539;SDS011;2792;52.452;9.752;2023-08-12T02:50:37;7.47;;;4.53;;
5539;SDS011;2792;52.452;9.752;2023-08-12T02:53:04;4.73;;;4.20;;
5539;SDS011;2792;52.452;9.752;2023-08-12T02:55:30;7.10;;;4.43;;
5539;SDS011;2792;52.452;9.752;2023-08-12T02:57:57;5.30;;;4.00;;
5539;SDS011;2792;52.452;9.752;2023-08-12T03:00:24;7.47;;;5.13;;
5539;SDS011;2792;52.452;9.752;2023-08-12T03:02:50;7.27;;;4.83;;
5539;SDS011;2792;52.452;9.752;2023-08-12T03:05:18;12.80;;;5.10;;
5539;SDS011;2792;52.452;9.752;2023-08-12T03:07:45;5.70;;;5.10;;
5539;SDS011;2792;52.452;9.752;2023-08-12T03:10:12;27.77;;;6.90;;
5539;SDS011;2792;52.452;9.752;2023-08-12T03:12:39;5.53;;;4.70;;
5539;SDS011;2792;52.452;9.752;2023-08-12T03:15:06;6.77;;;4.60;;
5539;SDS011;2792;52.452;9.752;2023-08-12T03:17:33;5.93;;;4.30;;
5539;SDS011;2792;52.452;9.752;2023-08-12T03:19:59;6.47;;;4.73;;
5539;SDS011;2792;52.452;9.752;2023-08-12T03:22:26;4.80;;;3.77;;
5539;SDS011;2792;52.452;9.752;2023-08-12T03:24:53;14.27;;;4.97;;
5539;SDS011;2792;52.452;9.752;2023-08-12T03:27:20;8.13;;;5.23;;
5539;SDS011;2792;52.452;9.752;2023-08-12T03:29:46;8.37;;;4.80;;
5539;SDS011;2792;52.452;9.752;2023-08-12T03:32:13;5.40;;;4.37;;
5539;SDS011;2792;52.452;9.752;2023-08-12T03:34:39;5.17;;;4.23;;
5539;SDS011;2792;52.452;9.752;2023-08-12T03:37:06;5.70;;;4.50;;
5539;SDS011;2792;52.452;9.752;2023-08-12T03:39:34;7.87;;;5.17;;
5539;SDS011;2792;52.452;9.752;2023-08-12T03:42:00;5.33;;;4.67;;
5539;SDS011;2792;52.452;9.752;2023-08-12T03:44:27;8.03;;;5.77;;
5539;SDS011;2792;52.452;9.752;2023-08-12T03:46:53;6.70;;;4.70;;
5539;SDS011;2792;52.452;9.752;2023-08-12T03:49:20;8.13;;;4.77;;
5539;SDS011;2792;52.452;9.752;2023-08-12T03:51:46;10.43;;;6.47;;
5539;SDS011;2792;52.452;9.752;2023-08-12T03:54:13;7.77;;;5.00;;
5539;SDS011;2792;52.452;9.752;2023-08-12T03:56:41;6.30;;;5.67;;
5539;SDS011;2792;52.452;9.752;2023-08-12T03:59:07;7.93;;;5.80;;
5539;SDS011;2792;52.452;9.752;2023-08-12T04:01:34;13.70;;;6.17;;
5539;SDS011;2792;52.452;9.752;2023-08-12T04:04:00;7.97;;;5.70;;
5539;SDS011;2792;52.452;9.752;2023-08-12T04:06:27;9.60;;;6.90;;
5539;SDS011;2792;52.452;9.752;2023-08-12T04:08:53;12.40;;;6.83;;
5539;SDS011;2792;52.452;9.752;2023-08-12T04:11:20;10.03;;;7.70;;
5539;SDS011;2792;52.452;9.752;2023-08-12T04:13:48;10.57;;;7.47;;
5539;SDS011;2792;52.452;9.752;2023-08-12T04:16:14;8.87;;;7.23;;
5539;SDS011;2792;52.452;9.752;2023-08-12T04:18:41;14.80;;;7.43;;
5539;SDS011;2792;52.452;9.752;2023-08-12T04:21:07;9.43;;;8.27;;
5539;SDS011;2792;52.452;9.752;2023-08-12T04:23:34;13.47;;;8.57;;
5539;SDS011;2792;52.452;9.752;2023-08-12T04:26:00;10.43;;;8.40;;
5539;SDS011;2792;52.452;9.752;2023-08-12T04:28:27;12.00;;;8.00;;
5539;SDS011;2792;52.452;9.752;2023-08-12T04:30:55;15.23;;;9.63;;
5539;SDS011;2792;52.452;9.752;2023-08-12T04:33:22;11.40;;;10.20;;
5539;SDS011;2792;52.452;9.752;2023-08-12T04:35:49;13.60;;;10.30;;
5539;SDS011;2792;52.452;9.752;2023-08-12T04:38:16;16.33;;;12.10;;
5539;SDS011;2792;52.452;9.752;2023-08-12T04:40:43;17.40;;;12.27;;
5539;SDS011;2792;52.452;9.752;2023-08-12T04:43:09;18.17;;;13.40;;
5539;SDS011;2792;52.452;9.752;2023-08-12T04:45:36;19.87;;;14.17;;
5539;SDS011;2792;52.452;9.752;2023-08-12T04:48:05;15.50;;;13.60;;
5539;SDS011;2792;52.452;9.752;2023-08-12T04:50:33;15.13;;;13.07;;
5539;SDS011;2792;52.452;9.752;2023-08-12T04:53:00;17.63;;;13.43;;
5539;SDS011;2792;52.452;9.752;2023-08-12T04:55:26;15.03;;;11.50;;
5539;SDS011;2792;52.452;9.752;2023-08-12T04:57:53;18.77;;;14.23;;
5539;SDS011;2792;52.452;9.752;2023-08-12T05:00:20;19.63;;;15.80;;
5539;SDS011;2792;52.452;9.752;2023-08-12T05:02:46;17.87;;;15.17;;
5539;SDS011;2792;52.452;9.752;2023-08-12T05:05:14;22.60;;;16.60;;
5539;SDS011;2792;52.452;9.752;2023-08-12T05:07:41;18.30;;;14.80;;
5539;SDS011;2792;52.452;9.752;2023-08-12T05:10:09;20.80;;;16.67;;
5539;SDS011;2792;52.452;9.752;2023-08-12T05:12:36;20.47;;;15.23;;
5539;SDS011;2792;52.452;9.752;2023-08-12T05:15:02;21.47;;;15.40;;
5539;SDS011;2792;52.452;9.752;2023-08-12T05:17:29;26.10;;;16.30;;
5539;SDS011;2792;52.452;9.752;2023-08-12T05:19:56;20.63;;;16.23;;
5539;SDS011;2792;52.452;9.752;2023-08-12T05:22:24;19.77;;;15.93;;
5539;SDS011;2792;52.452;9.752;2023-08-12T05:24:50;23.20;;;16.10;;
5539;SDS011;2792;52.452;9.752;2023-08-12T05:27:17;22.87;;;16.80;;
5539;SDS011;2792;52.452;9.752;2023-08-12T05:29:43;23.23;;;17.30;;
5539;SDS011;2792;52.452;9.752;2023-08-12T05:32:10;21.43;;;16.57;;
5539;SDS011;2792;52.452;9.752;2023-08-12T05:34:36;23.00;;;17.90;;
5539;SDS011;2792;52.452;9.752;2023-08-12T05:37:03;21.43;;;17.57;;
5539;SDS011;2792;52.452;9.752;2023-08-12T05:39:31;20.47;;;16.63;;
5539;SDS011;2792;52.452;9.752;2023-08-12T05:41:57;20.83;;;17.07;;
5539;SDS011;2792;52.452;9.752;2023-08-12T05:44:24;19.43;;;16.23;;
5539;SDS011;2792;52.452;9.752;2023-08-12T05:46:50;22.17;;;16.50;;
5539;SDS011;2792;52.452;9.752;2023-08-12T05:49:17;22.30;;;15.33;;
5539;SDS011;2792;52.452;9.752;2023-08-12T05:51:43;21.37;;;17.80;;
5539;SDS011;2792;52.452;9.752;2023-08-12T05:54:10;20.67;;;17.03;;
5539;SDS011;2792;52.452;9.752;2023-08-12T05:56:38;20.80;;;14.67;;
5539;SDS011;2792;52.452;9.752;2023-08-12T05:59:04;20.50;;;15.97;;
5539;SDS011;2792;52.452;9.752;2023-08-12T06:01:31;21.83;;;15.87;;
5539;SDS011;2792;52.452;9.752;2023-08-12T06:03:57;22.63;;;15.80;;
5539;SDS011;2792;52.452;9.752;2023-08-12T06:06:24;20.97;;;14.47;;
5539;SDS011;2792;52.452;9.752;2023-08-12T06:08:50;18.40;;;14.17;;
5539;SDS011;2792;52.452;9.752;2023-08-12T06:11:17;26.30;;;16.50;;
5539;SDS011;2792;52.452;9.752;2023-08-12T06:13:45;22.77;;;15.00;;
5539;SDS011;2792;52.452;9.752;2023-08-12T06:16:11;19.20;;;14.13;;
5539;SDS011;2792;52.452;9.752;2023-08-12T06:18:38;20.03;;;15.70;;
5539;SDS011;2792;52.452;9.752;2023-08-12T06:21:04;21.53;;;14.47;;
5539;SDS011;2792;52.452;9.752;2023-08-12T06:23:31;16.27;;;12.13;;
5539;SDS011;2792;52.452;9.752;2023-08-12T06:25:57;18.53;;;13.37;;
5539;SDS011;2792;52.452;9.752;2023-08-12T06:28:24;15.77;;;11.57;;
5539;SDS011;2792;52.452;9.752;2023-08-12T06:30:52;15.57;;;12.53;;
5539;SDS011;2792;52.452;9.752;2023-08-12T06:33:18;16.63;;;13.70;;
5539;SDS011;2792;52.452;9.752;2023-08-12T06:35:45;18.30;;;13.27;;
5539;SDS011;2792;52.452;9.752;2023-08-12T06:38:11;20.07;;;14.73;;
5539;SDS011;2792;52.452;9.752;2023-08-12T06:40:38;19.63;;;13.47;;
5539;SDS011;2792;52.452;9.752;2023-08-12T06:43:05;18.27;;;13.40;;
5539;SDS011;2792;52.452;9.752;2023-08-12T06:45:32;18.97;;;13.10;;
5539;SDS011;2792;52.452;9.752;2023-08-12T06:48:00;17.97;;;14.50;;
5539;SDS011;2792;52.452;9.752;2023-08-12T06:50:28;19.30;;;13.40;;
5539;SDS011;2792;52.452;9.752;2023-08-12T06:52:55;18.00;;;11.70;;
5539;SDS011;2792;52.452;9.752;2023-08-12T06:55:22;15.73;;;12.10;;
5539;SDS011;2792;52.452;9.752;2023-08-12T06:57:48;16.67;;;11.37;;
5539;SDS011;2792;52.452;9.752;2023-08-12T07:00:15;15.00;;;10.90;;
5539;SDS011;2792;52.452;9.752;2023-08-12T07:02:41;13.00;;;9.77;;
5539;SDS011;2792;52.452;9.752;2023-08-12T07:05:09;15.43;;;11.93;;
5539;SDS011;2792;52.452;9.752;2023-08-12T07:07:36;14.23;;;9.60;;
5539;SDS011;2792;52.452;9.752;2023-08-12T07:10:03;11.90;;;9.40;;
5539;SDS011;2792;52.452;9.752;2023-08-12T07:12:31;12.63;;;9.97;;
5539;SDS011;2792;52.452;9.752;2023-08-12T07:14:58;10.60;;;7.83;;
5539;SDS011;2792;52.452;9.752;2023-08-12T07:17:24;14.83;;;8.53;;
5539;SDS011;2792;52.452;9.752;2023-08-12T07:19:51;12.23;;;8.93;;
5539;SDS011;2792;52.452;9.752;2023-08-12T07:22:19;11.30;;;8.17;;
5539;SDS011;2792;52.452;9.752;2023-08-12T07:24:45;13.33;;;8.80;;
5539;SDS011;2792;52.452;9.752;2023-08-12T07:27:12;10.60;;;9.03;;
5539;SDS011;2792;52.452;9.752;2023-08-12T07:29:38;10.70;;;8.90;;
5539;SDS011;2792;52.452;9.752;2023-08-12T07:32:05;13.50;;;8.70;;
5539;SDS011;2792;52.452;9.752;2023-08-12T07:34:31;15.37;;;8.73;;
5539;SDS011;2792;52.452;9.752;2023-08-12T07:36:58;11.83;;;7.80;;
5539;SDS011;2792;52.452;9.752;2023-08-12T07:39:26;19.80;;;9.67;;
5539;SDS011;2792;52.452;9.752;2023-08-12T07:41:52;11.37;;;7.67;;
5539;SDS011;2792;52.452;9.752;2023-08-12T07:44:19;14.03;;;8.30;;
5539;SDS011;2792;52.452;9.752;2023-08-12T07:46:45;12.67;;;8.20;;
5539;SDS011;2792;52.452;9.752;2023-08-12T07:49:12;11.10;;;8.60;;
5539;SDS011;2792;52.452;9.752;2023-08-12T07:51:39;10.73;;;7.70;;
5539;SDS011;2792;52.452;9.752;2023-08-12T07:54:06;9.43;;;7.27;;
5539;SDS011;2792;52.452;9.752;2023-08-12T07:56:34;14.90;;;8.30;;
5539;SDS011;2792;52.452;9.752;2023-08-12T07:59:00;13.63;;;8.53;;
5539;SDS011;2792;52.452;9.752;2023-08-12T08:01:27;10.90;;;6.83;;
5539;SDS011;2792;52.452;9.752;2023-08-12T08:03:54;11.67;;;7.23;;
5539;SDS011;2792;52.452;9.752;2023-08-12T08:06:21;13.90;;;9.10;;
5539;SDS011;2792;52.452;9.752;2023-08-12T08:08:48;11.20;;;7.10;;
5539;SDS011;2792;52.452;9.752;2023-08-12T08:11:15;13.30;;;9.57;;
5539;SDS011;2792;52.452;9.752;2023-08-12T08:13:43;14.00;;;7.10;;
5539;SDS011;2792;52.452;9.752;2023-08-12T08:16:09;12.33;;;7.80;;
5539;SDS011;2792;52.452;9.752;2023-08-12T08:18:35;13.87;;;8.80;;
5539;SDS011;2792;52.452;9.752;2023-08-12T08:21:02;13.30;;;9.40;;
5539;SDS011;2792;52.452;9.752;2023-08-12T08:23:28;13.40;;;9.40;;
5539;SDS011;2792;52.452;9.752;2023-08-12T08:25:55;10.47;;;7.73;;
5539;SDS011;2792;52.452;9.752;2023-08-12T08:28:21;13.57;;;9.90;;
5539;SDS011;2792;52.452;9.752;2023-08-12T08:30:49;19.70;;;9.57;;
5539;SDS011;2792;52.452;9.752;2023-08-12T08:33:16;9.40;;;7.03;;
5539;SDS011;2792;52.452;9.752;2023-08-12T08:35:42;13.17;;;8.77;;
5539;SDS011;2792;52.452;9.752;2023-08-12T08:38:09;13.07;;;8.37;;
5539;SDS011;2792;52.452;9.752;2023-08-12T08:40:35;11.00;;;6.60;;
5539;SDS011;2792;52.452;9.752;2023-08-12T08:43:02;13.83;;;8.57;;
5539;SDS011;2792;52.452;9.752;2023-08-12T08:45:31;16.70;;;8.77;;
5539;SDS011;2792;52.452;9.752;2023-08-12T08:48:00;12.00;;;7.90;;
5539;SDS011;2792;52.452;9.752;2023-08-12T08:50:28;12.63;;;8.07;;
5539;SDS011;2792;52.452;9.752;2023-08-12T08:52:56;11.80;;;7.60;;
5539;SDS011;2792;52.452;9.752;2023-08-12T08:55:23;14.97;;;8.87;;
5539;SDS011;2792;52.452;9.752;2023-08-12T08:57:49;12.03;;;7.77;;
5539;SDS011;2792;52.452;9.752;2023-08-12T09:00:16;15.07;;;8.57;;
5539;SDS011;2792;52.452;9.752;2023-08-12T09:02:44;10.80;;;6.90;;
5539;SDS011;2792;52.452;9.752;2023-08-12T09:05:14;12.00;;;7.57;;
5539;SDS011;2792;52.452;9.752;2023-08-12T09:07:41;14.43;;;7.97;;
5539;SDS011;2792;52.452;9.752;2023-08-12T09:10:09;11.03;;;6.57;;
5539;SDS011;2792;52.452;9.752;2023-08-12T09:12:36;10.80;;;7.47;;
5539;SDS011;2792;52.452;9.752;2023-08-12T09:15:03;11.50;;;7.97;;
5539;SDS011;2792;52.452;9.752;2023-08-12T09:17:31;12.13;;;6.87;;
5539;SDS011;2792;52.452;9.752;2023-08-12T09:19:58;8.20;;;6.67;;
5539;SDS011;2792;52.452;9.752;2023-08-12T09:22:26;11.30;;;7.40;;
5539;SDS011;2792;52.452;9.752;2023-08-12T09:24:55;12.23;;;7.97;;
5539;SDS011;2792;52.452;9.752;2023-08-12T09:27:22;11.60;;;7.80;;
5539;SDS011;2792;52.452;9.752;2023-08-12T09:29:49;9.63;;;7.07;;
5539;SDS011;2792;52.452;9.752;2023-08-12T09:32:18;10.60;;;9.10;;
5539;SDS011;2792;52.452;9.752;2023-08-12T09:34:48;13.20;;;7.80;;
5539;SDS011;2792;52.452;9.752;2023-08-12T09:37:16;13.80;;;9.37;;
5539;SDS011;2792;52.452;9.752;2023-08-12T09:39:44;11.80;;;8.30;;
5539;SDS011;2792;52.452;9.752;2023-08-12T09:42:12;9.50;;;7.33;;
5539;SDS011;2792;52.452;9.752;2023-08-12T09:44:38;10.30;;;7.20;;
5539;SDS011;2792;52.452;9.752;2023-08-12T09:47:06;12.43;;;8.17;;
5539;SDS011;2792;52.452;9.752;2023-08-12T09:49:33;8.73;;;6.93;;
5539;SDS011;2792;52.452;9.752;2023-08-12T09:52:00;9.40;;;7.20;;
5539;SDS011;2792;52.452;9.752;2023-08-12T09:54:27;10.60;;;6.57;;
5539;SDS011;2792;52.452;9.752;2023-08-12T09:56:56;9.00;;;6.93;;
5539;SDS011;2792;52.452;9.752;2023-08-12T09:59:24;8.93;;;6.87;;
5539;SDS011;2792;52.452;9.752;2023-08-12T10:01:53;12.67;;;5.90;;
5539;SDS011;2792;52.452;9.752;2023-08-12T10:04:21;8.20;;;6.70;;
5539;SDS011;2792;52.452;9.752;2023-08-12T10:06:49;8.97;;;6.90;;
5539;SDS011;2792;52.452;9.752;2023-08-12T10:09:16;10.07;;;6.23;;
5539;SDS011;2792;52.452;9.752;2023-08-12T10:11:43;20.13;;;7.20;;
5539;SDS011;2792;52.452;9.752;2023-08-12T10:14:11;10.57;;;6.73;;
5539;SDS011;2792;52.452;9.752;2023-08-12T10:16:38;8.43;;;5.50;;
5539;SDS011;2792;52.452;9.752;2023-08-12T10:19:05;7.20;;;5.80;;
5539;SDS011;2792;52.452;9.752;2023-08-12T10:21:32;8.27;;;6.27;;
5539;SDS011;2792;52.452;9.752;2023-08-12T10:24:00;7.87;;;5.67;;
5539;SDS011;2792;52.452;9.752;2023-08-12T10:26:29;10.30;;;5.20;;
5539;SDS011;2792;52.452;9.752;2023-08-12T10:28:56;6.23;;;5.60;;
5539;SDS011;2792;52.452;9.752;2023-08-12T10:31:24;8.00;;;5.50;;
5539;SDS011;2792;52.452;9.752;2023-08-12T10:33:52;6.73;;;5.63;;
5539;SDS011;2792;52.452;9.752;2023-08-12T10:36:20;6.80;;;5.43;;
5539;SDS011;2792;52.452;9.752;2023-08-12T10:38:47;7.53;;;5.80;;
5539;SDS011;2792;52.452;9.752;2023-08-12T10:41:15;12.10;;;6.90;;
5539;SDS011;2792;52.452;9.752;2023-08-12T10:43:48;7.20;;;6.50;;
5539;SDS011;2792;52.452;9.752;2023-08-12T10:46:21;11.63;;;6.30;;
5539;SDS011;2792;52.452;9.752;2023-08-12T10:48:57;7.03;;;5.40;;
5539;SDS011;2792;52.452;9.752;2023-08-12T10:51:44;8.00;;;6.50;;
5539;SDS011;2792;52.452;9.752;2023-08-12T10:54:20;7.70;;;6.13;;
5539;SDS011;2792;52.452;9.752;2023-08-12T10:59:48;8.10;;;6.37;;
5539;SDS011;2792;52.452;9.752;2023-08-12T11:02:20;8.17;;;6.10;;
5539;SDS011;2792;52.452;9.752;2023-08-12T11:05:00;5.90;;;5.17;;
5539;SDS011;2792;52.452;9.752;2023-08-12T11:07:32;6.17;;;5.57;;
5539;SDS011;2792;52.452;9.752;2023-08-12T11:10:03;6.50;;;5.13;;
5539;SDS011;2792;52.452;9.752;2023-08-12T11:12:32;6.70;;;5.27;;
5539;SDS011;2792;52.452;9.752;2023-08-12T11:14:59;5.87;;;5.20;;
5539;SDS011;2792;52.452;9.752;2023-08-12T11:17:28;9.30;;;5.33;;
5539;SDS011;2792;52.452;9.752;2023-08-12T11:19:55;9.50;;;5.13;;
5539;SDS011;2792;52.452;9.752;2023-08-12T11:22:23;5.80;;;4.87;;
5539;SDS011;2792;52.452;9.752;2023-08-12T11:24:50;9.30;;;5.40;;
5539;SDS011;2792;52.452;9.752;2023-08-12T11:27:17;5.17;;;4.67;;
5539;SDS011;2792;52.452;9.752;2023-08-12T11:29:44;6.23;;;4.93;;
5539;SDS011;2792;52.452;9.752;2023-08-12T11:32:10;6.30;;;4.40;;
5539;SDS011;2792;52.452;9.752;2023-08-12T11:34:37;8.57;;;5.63;;
5539;SDS011;2792;52.452;9.752;2023-08-12T11:37:04;6.03;;;4.77;;
5539;SDS011;2792;52.452;9.752;2023-08-12T11:39:32;5.53;;;4.83;;
5539;SDS011;2792;52.452;9.752;2023-08-12T11:42:00;5.70;;;4.80;;
5539;SDS011;2792;52.452;9.752;2023-08-12T11:44:26;6.70;;;4.67;;
5539;SDS011;2792;52.452;9.752;2023-08-12T11:46:53;6.87;;;4.97;;
5539;SDS011;2792;52.452;9.752;2023-08-12T11:49:19;7.97;;;4.27;;
5539;SDS011;2792;52.452;9.752;2023-08-12T11:51:47;3.83;;;3.43;;
5539;SDS011;2792;52.452;9.752;2023-08-12T11:54:15;4.33;;;3.90;;
5539;SDS011;2792;52.452;9.752;2023-08-12T11:56:43;4.80;;;4.40;;
5539;SDS011;2792;52.452;9.752;2023-08-12T11:59:10;4.00;;;3.70;;
5539;SDS011;2792;52.452;9.752;2023-08-12T12:01:37;5.80;;;4.37;;
5539;SDS011;2792;52.452;9.752;2023-08-12T12:04:03;6.23;;;4.37;;
5539;SDS011;2792;52.452;9.752;2023-08-12T12:06:31;5.17;;;4.23;;
5539;SDS011;2792;52.452;9.752;2023-08-12T12:08:59;8.10;;;4.70;;
5539;SDS011;2792;52.452;9.752;2023-08-12T12:11:29;4.37;;;3.63;;
5539;SDS011;2792;52.452;9.752;2023-08-12T12:13:59;5.37;;;3.87;;
5539;SDS011;2792;52.452;9.752;2023-08-12T12:16:35;6.00;;;4.00;;
5539;SDS011;2792;52.452;9.752;2023-08-12T12:19:03;4.10;;;3.80;;
5539;SDS011;2792;52.452;9.752;2023-08-12T12:21:31;5.63;;;4.30;;
5539;SDS011;2792;52.452;9.752;2023-08-12T12:23:58;4.77;;;3.87;;
5539;SDS011;2792;52.452;9.752;2023-08-12T12:26:25;5.00;;;4.50;;
5539;SDS011;2792;52.452;9.752;2023-08-12T12:28:51;5.63;;;3.30;;
5539;SDS011;2792;52.452;9.752;2023-08-12T12:31:19;4.40;;;3.43;;
5539;SDS011;2792;52.452;9.752;2023-08-12T12:33:46;4.10;;;3.73;;
5539;SDS011;2792;52.452;9.752;2023-08-12T12:36:12;3.50;;;3.20;;
5539;SDS011;2792;52.452;9.752;2023-08-12T12:38:39;4.00;;;3.40;;
5539;SDS011;2792;52.452;9.752;2023-08-12T12:41:05;3.83;;;3.07;;
5539;SDS011;2792;52.452;9.752;2023-08-12T12:43:32;3.70;;;3.03;;
5539;SDS011;2792;52.452;9.752;2023-08-12T12:45:58;4.80;;;2.93;;
5539;SDS011;2792;52.452;9.752;2023-08-12T12:48:26;4.30;;;3.20;;
5539;SDS011;2792;52.452;9.752;2023-08-12T12:50:52;3.20;;;2.90;;
5539;SDS011;2792;52.452;9.752;2023-08-12T12:53:19;3.30;;;3.00;;
5539;SDS011;2792;52.452;9.752;2023-08-12T12:55:45;4.20;;;2.90;;
5539;SDS011;2792;52.452;9.752;2023-08-12T12:58:12;3.20;;;3.00;;
5539;SDS011;2792;52.452;9.752;2023-08-12T13:00:38;3.20;;;2.90;;
5539;SDS011;2792;52.452;9.752;2023-08-12T13:03:05;3.37;;;2.93;;
5539;SDS011;2792;52.452;9.752;2023-08-12T13:05:33;2.73;;;2.50;;
5539;SDS011;2792;52.452;9.752;2023-08-12T13:07:59;3.30;;;3.00;;
5539;SDS011;2792;52.452;9.752;2023-08-12T13:10:26;3.10;;;2.80;;
5539;SDS011;2792;52.452;9.752;2023-08-12T13:12:52;2.90;;;2.67;;
5539;SDS011;2792;52.452;9.752;2023-08-12T13:15:19;2.40;;;2.20;;
5539;SDS011;2792;52.452;9.752;2023-08-12T13:17:45;2.50;;;2.30;;
5539;SDS011;2792;52.452;9.752;2023-08-12T13:20:12;2.43;;;2.27;;
5539;SDS011;2792;52.452;9.752;2023-08-12T13:22:40;2.60;;;2.40;;
5539;SDS011;2792;52.452;9.752;2023-08-12T13:25:06;2.60;;;2.40;;
5539;SDS011;2792;52.452;9.752;2023-08-12T13:27:33;2.57;;;1.87;;
5539;SDS011;2792;52.452;9.752;2023-08-12T13:30:00;2.37;;;2.17;;
5539;SDS011;2792;52.452;9.752;2023-08-12T13:32:26;2.60;;;2.40;;
5539;SDS011;2792;52.452;9.752;2023-08-12T13:34:53;2.90;;;1.97;;
5539;SDS011;2792;52.452;9.752;2023-08-12T13:37:19;2.97;;;1.90;;
5539;SDS011;2792;52.452;9.752;2023-08-12T13:39:47;1.90;;;1.80;;
5539;SDS011;2792;52.452;9.752;2023-08-12T13:42:13;3.07;;;2.00;;
5539;SDS011;2792;52.452;9.752;2023-08-12T13:44:40;1.97;;;1.70;;
5539;SDS011;2792;52.452;9.752;2023-08-12T13:47:06;2.30;;;1.60;;
5539;SDS011;2792;52.452;9.752;2023-08-12T13:49:33;1.87;;;1.70;;
5539;SDS011;2792;52.452;9.752;2023-08-12T13:51:59;1.60;;;1.50;;
5539;SDS011;2792;52.452;9.752;2023-08-12T13:54:26;4.13;;;1.50;;
5539;SDS011;2792;52.452;9.752;2023-08-12T13:56:54;1.93;;;1.80;;
5539;SDS011;2792;52.452;9.752;2023-08-12T13:59:20;2.10;;;1.90;;
5539;SDS011;2792;52.452;9.752;2023-08-12T14:01:47;4.13;;;1.80;;
5539;SDS011;2792;52.452;9.752;2023-08-12T14:04:14;2.17;;;1.97;;
5539;SDS011;2792;52.452;9.752;2023-08-12T14:06:40;1.73;;;1.60;;
5539;SDS011;2792;52.452;9.752;2023-08-12T14:09:08;2.90;;;1.77;;
5539;SDS011;2792;52.452;9.752;2023-08-12T14:11:37;2.20;;;1.60;;
5539;SDS011;2792;52.452;9.752;2023-08-12T14:14:05;1.50;;;1.40;;
5539;SDS011;2792;52.452;9.752;2023-08-12T14:16:31;1.73;;;1.60;;
5539;SDS011;2792;52.452;9.752;2023-08-12T14:18:58;1.73;;;1.30;;
5539;SDS011;2792;52.452;9.752;2023-08-12T14:21:24;1.70;;;1.40;;
5539;SDS011;2792;52.452;9.752;2023-08-12T14:23:51;1.33;;;1.23;;
5539;SDS011;2792;52.452;9.752;2023-08-12T14:26:17;1.77;;;1.67;;
5539;SDS011;2792;52.452;9.752;2023-08-12T14:28:44;2.20;;;1.33;;
5539;SDS011;2792;52.452;9.752;2023-08-12T14:31:11;1.40;;;1.30;;
5539;SDS011;2792;52.452;9.752;2023-08-12T14:33:38;1.40;;;1.30;;
5539;SDS011;2792;52.452;9.752;2023-08-12T14:36:05;2.70;;;1.70;;
5539;SDS011;2792;52.452;9.752;2023-08-12T14:38:32;1.60;;;1.40;;
5539;SDS011;2792;52.452;9.752;2023-08-12T14:40:59;1.57;;;1.40;;
5539;SDS011;2792;52.452;9.752;2023-08-12T14:43:26;1.60;;;1.50;;
5539;SDS011;2792;52.452;9.752;2023-08-12T14:45:52;1.50;;;1.40;;
5539;SDS011;2792;52.452;9.752;2023-08-12T14:48:20;1.87;;;1.57;;
5539;SDS011;2792;52.452;9.752;2023-08-12T14:50:46;1.60;;;1.50;;
5539;SDS011;2792;52.452;9.752;2023-08-12T14:53:13;3.30;;;1.90;;
5539;SDS011;2792;52.452;9.752;2023-08-12T14:55:40;1.40;;;1.30;;
5539;SDS011;2792;52.452;9.752;2023-08-12T14:58:06;1.60;;;1.50;;
5539;SDS011;2792;52.452;9.752;2023-08-12T15:00:33;1.43;;;1.33;;
5539;SDS011;2792;52.452;9.752;2023-08-12T15:02:59;2.30;;;1.60;;
5539;SDS011;2792;52.452;9.752;2023-08-12T15:05:27;2.37;;;2.17;;
5539;SDS011;2792;52.452;9.752;2023-08-12T15:07:54;1.77;;;1.67;;
5539;SDS011;2792;52.452;9.752;2023-08-12T15:10:20;2.37;;;2.17;;